createdAt,value
2018-09-05T00:00:49.832Z,4.27
2018-09-05T00:03:18.100Z,4.47
2018-09-05T00:05:46.360Z,4.30
2018-09-05T00:08:14.660Z,4.50
2018-09-05T00:10:42.900Z,4.30
2018-09-05T00:13:11.174Z,4.60
2018-09-05T00:15:39.476Z,4.30
2018-09-05T00:18:07.740Z,3.93
2018-09-05T00:20:35.997Z,4.10
2018-09-05T00:23:04.300Z,3.90
2018-09-05T00:25:32.694Z,4.00
2018-09-05T00:28:01.004Z,4.40
2018-09-05T00:30:29.274Z,4.50
2018-09-05T00:32:57.580Z,4.30
2018-09-05T00:35:25.879Z,4.27
2018-09-05T00:37:54.169Z,4.27
2018-09-05T00:40:22.431Z,3.87
2018-09-05T00:42:50.799Z,4.37
2018-09-05T00:45:19.094Z,4.30
2018-09-05T00:47:47.396Z,4.33
2018-09-05T00:50:15.683Z,4.17
2018-09-05T00:52:43.936Z,4.60
2018-09-05T00:55:12.296Z,4.10
2018-09-05T00:57:40.597Z,4.47
2018-09-05T01:00:09.058Z,4.27
2018-09-05T01:02:37.354Z,4.60
2018-09-05T01:05:05.666Z,4.80
2018-09-05T01:07:33.944Z,4.40
2018-09-05T01:10:02.247Z,4.60
2018-09-05T01:12:30.568Z,4.20
2018-09-05T01:14:58.852Z,4.60
2018-09-05T01:17:27.165Z,4.60
2018-09-05T01:19:55.461Z,4.53
2018-09-05T01:22:23.784Z,4.20
2018-09-05T01:24:52.026Z,4.63
2018-09-05T01:27:20.372Z,4.70
2018-09-05T01:29:48.680Z,4.33
2018-09-05T01:32:16.919Z,4.60
2018-09-05T01:34:45.219Z,4.23
2018-09-05T01:37:13.496Z,4.43
2018-09-05T01:39:41.754Z,4.37
2018-09-05T01:42:10.686Z,4.43
2018-09-05T01:44:39.548Z,4.50
2018-09-05T01:47:07.780Z,4.40
2018-09-05T01:49:36.084Z,4.47
2018-09-05T01:52:04.362Z,4.90
2018-09-05T01:54:32.660Z,4.47
2018-09-05T01:57:00.947Z,4.83
2018-09-05T01:59:29.177Z,4.20
2018-09-05T02:01:57.463Z,4.70
2018-09-05T02:04:25.708Z,4.53
2018-09-05T02:06:53.950Z,5.07
2018-09-05T02:09:22.287Z,4.47
2018-09-05T02:11:50.510Z,5.00
2018-09-05T02:14:18.823Z,4.50
2018-09-05T02:16:47.137Z,4.30
2018-09-05T02:19:15.444Z,4.53
2018-09-05T02:21:45.099Z,4.17
2018-09-05T02:24:13.347Z,4.03
2018-09-05T02:26:41.665Z,4.57
2018-09-05T02:29:09.972Z,4.47
2018-09-05T02:31:38.203Z,4.27
2018-09-05T02:34:06.563Z,4.43
2018-09-05T02:36:34.880Z,4.70
2018-09-05T02:39:03.403Z,4.57
2018-09-05T02:41:31.666Z,4.83
2018-09-05T02:44:05.283Z,4.30
2018-09-05T02:46:33.583Z,4.47
2018-09-05T02:49:01.891Z,4.70
2018-09-05T02:51:30.125Z,4.63
2018-09-05T02:53:58.456Z,4.33
2018-09-05T02:56:26.781Z,4.70
2018-09-05T02:58:55.131Z,4.20
2018-09-05T03:01:23.401Z,3.77
2018-09-05T03:03:51.657Z,4.40
2018-09-05T03:06:19.971Z,4.37
2018-09-05T03:08:48.281Z,4.10
2018-09-05T03:11:16.660Z,4.03
2018-09-05T03:13:44.987Z,4.00
2018-09-05T03:16:13.247Z,4.10
2018-09-05T03:18:41.512Z,4.10
2018-09-05T03:21:09.783Z,4.30
2018-09-05T03:23:38.206Z,3.87
2018-09-05T03:26:13.203Z,3.90
2018-09-05T03:28:41.498Z,4.47
2018-09-05T03:31:09.793Z,4.50
2018-09-05T03:33:38.119Z,4.10
2018-09-05T03:36:06.396Z,4.37
2018-09-05T03:38:34.649Z,3.77
2018-09-05T03:41:03.066Z,3.90
2018-09-05T03:43:31.324Z,3.83
2018-09-05T03:45:59.613Z,4.10
2018-09-05T03:48:27.893Z,4.33
2018-09-05T03:50:56.590Z,4.07
2018-09-05T03:53:26.023Z,4.47
2018-09-05T03:55:54.911Z,4.33
2018-09-05T03:58:23.407Z,4.00
2018-09-05T04:00:51.728Z,4.27
2018-09-05T04:03:20.032Z,3.90
2018-09-05T04:05:48.283Z,4.33
2018-09-05T04:08:16.542Z,4.27
2018-09-05T04:10:44.859Z,4.10
2018-09-05T04:13:13.120Z,4.30
2018-09-05T04:15:41.415Z,3.73
2018-09-05T04:18:09.915Z,4.33
2018-09-05T04:20:38.200Z,4.50
2018-09-05T04:23:06.740Z,4.10
2018-09-05T04:25:35.129Z,4.07
2018-09-05T04:28:03.423Z,4.63
2018-09-05T04:30:31.708Z,4.37
2018-09-05T04:32:59.987Z,4.50
2018-09-05T04:35:28.327Z,4.50
2018-09-05T04:37:56.604Z,4.20
2018-09-05T04:40:24.912Z,4.50
2018-09-05T04:42:53.251Z,4.97
2018-09-05T04:45:21.666Z,5.33
2018-09-05T04:47:49.963Z,4.90
2018-09-05T04:50:18.340Z,4.80
2018-09-05T04:52:46.640Z,4.70
2018-09-05T04:55:21.532Z,4.80
2018-09-05T04:57:49.799Z,4.53
2018-09-05T05:00:18.056Z,5.10
2018-09-05T05:02:46.411Z,4.83
2018-09-05T05:05:15.116Z,4.97
2018-09-05T05:07:43.476Z,5.30
2018-09-05T05:10:11.885Z,4.63
2018-09-05T05:12:40.214Z,4.80
2018-09-05T05:15:08.540Z,5.20
2018-09-05T05:17:36.896Z,5.63
2018-09-05T05:20:05.216Z,5.60
2018-09-05T05:22:33.564Z,5.40
2018-09-05T05:25:01.835Z,5.63
2018-09-05T05:27:30.127Z,5.70
2018-09-05T05:29:58.429Z,5.30
2018-09-05T05:32:26.774Z,5.23
2018-09-05T05:34:55.210Z,5.80
2018-09-05T05:37:23.524Z,5.27
2018-09-05T05:39:51.840Z,5.50
2018-09-05T05:42:20.140Z,5.17
2018-09-05T05:44:48.368Z,5.47
2018-09-05T05:47:16.634Z,5.50
2018-09-05T05:49:44.943Z,5.67
2018-09-05T05:52:13.346Z,6.00
2018-09-05T05:54:41.572Z,5.17
2018-09-05T05:57:09.887Z,5.50
2018-09-05T05:59:38.283Z,5.90
2018-09-05T06:02:06.567Z,5.27
2018-09-05T06:04:35.168Z,5.60
2018-09-05T06:07:03.455Z,5.20
2018-09-05T06:09:31.850Z,5.20
2018-09-05T06:16:02.550Z,5.10
2018-09-05T06:18:50.212Z,5.00
2018-09-05T06:21:18.440Z,4.97
2018-09-05T06:23:46.720Z,5.20
2018-09-05T06:26:14.976Z,4.90
2018-09-05T06:28:43.275Z,5.03
2018-09-05T06:31:11.625Z,5.27
2018-09-05T06:33:39.873Z,5.00
2018-09-05T06:36:08.194Z,4.93
2018-09-05T06:38:36.524Z,5.10
2018-09-05T06:41:05.084Z,5.30
2018-09-05T06:43:33.388Z,5.47
2018-09-05T06:46:01.671Z,5.43
2018-09-05T06:48:30.001Z,5.30
2018-09-05T06:51:06.240Z,5.30
2018-09-05T06:53:35.728Z,5.40
2018-09-05T06:56:04.313Z,5.10
2018-09-05T06:58:32.759Z,5.27
2018-09-05T07:01:01.032Z,5.10
2018-09-05T07:03:29.435Z,5.40
2018-09-05T07:05:57.865Z,5.43
2018-09-05T07:08:26.107Z,5.60
2018-09-05T07:10:54.423Z,5.47
2018-09-05T07:14:16.070Z,5.57
2018-09-05T07:16:46.559Z,5.60
2018-09-05T07:19:15.033Z,5.43
2018-09-05T07:21:45.471Z,6.10
2018-09-05T07:24:13.784Z,5.00
2018-09-05T07:26:42.138Z,5.63
2018-09-05T07:29:10.452Z,5.47
2018-09-05T07:31:38.728Z,5.30
2018-09-05T07:34:07.022Z,5.47
2018-09-05T07:36:35.344Z,5.93
2018-09-05T07:39:04.344Z,5.80
2018-09-05T07:41:32.625Z,6.33
2018-09-05T07:44:00.864Z,6.87
2018-09-05T07:46:29.134Z,6.50
2018-09-05T07:48:57.550Z,7.57
2018-09-05T07:51:25.851Z,6.80
2018-09-05T07:54:00.768Z,7.97
2018-09-05T07:56:29.091Z,7.30
2018-09-05T07:58:57.517Z,6.33
2018-09-05T08:01:25.796Z,6.23
2018-09-05T08:03:54.210Z,5.90
2018-09-05T08:06:22.492Z,6.20
2018-09-05T08:08:50.811Z,5.77
2018-09-05T08:11:19.104Z,5.87
2018-09-05T08:13:47.415Z,5.43
2018-09-05T08:16:15.694Z,5.57
2018-09-05T08:18:44.036Z,5.43
2018-09-05T08:21:12.353Z,5.07
2018-09-05T08:23:40.639Z,5.63
2018-09-05T08:26:08.959Z,5.70
2018-09-05T08:28:37.262Z,5.20
2018-09-05T08:31:05.859Z,5.70
2018-09-05T08:33:34.095Z,5.47
2018-09-05T08:36:02.670Z,5.67
2018-09-05T08:38:30.836Z,5.40
2018-09-05T08:41:03.488Z,4.87
2018-09-05T08:43:32.104Z,5.30
2018-09-05T08:46:00.513Z,4.60
2018-09-05T08:48:28.973Z,5.13
2018-09-05T08:50:57.141Z,4.67
2018-09-05T08:53:25.440Z,4.33
2018-09-05T08:55:53.770Z,4.10
2018-09-05T08:58:22.083Z,4.57
2018-09-05T09:00:50.348Z,4.27
2018-09-05T09:03:18.628Z,4.17
2018-09-05T09:05:47.064Z,4.00
2018-09-05T09:08:15.358Z,3.87
2018-09-05T09:10:43.655Z,4.23
2018-09-05T09:13:11.972Z,4.20
2018-09-05T09:15:40.272Z,5.10
2018-09-05T09:18:08.668Z,4.47
2018-09-05T09:20:36.991Z,3.97
2018-09-05T09:23:05.306Z,4.23
2018-09-05T09:25:33.592Z,4.47
2018-09-05T09:28:01.907Z,4.37
2018-09-05T09:30:30.156Z,4.50
2018-09-05T09:32:58.466Z,4.30
2018-09-05T09:35:26.839Z,4.60
2018-09-05T09:37:55.143Z,4.57
2018-09-05T09:40:23.559Z,4.87
2018-09-05T09:42:51.913Z,4.60
2018-09-05T09:45:20.281Z,4.50
2018-09-05T09:47:48.599Z,4.70
2018-09-05T09:50:17.098Z,4.37
2018-09-05T09:52:45.376Z,4.30
2018-09-05T09:55:13.779Z,4.30
2018-09-05T09:57:42.069Z,4.50
2018-09-05T10:00:11.350Z,4.67
2018-09-05T10:02:45.309Z,4.40
2018-09-05T10:05:19.211Z,4.07
2018-09-05T10:07:52.895Z,3.80
2018-09-05T10:10:26.710Z,3.90
2018-09-05T10:13:00.616Z,4.25
2018-09-05T10:15:34.355Z,5.78
2018-09-05T10:18:08.078Z,4.35
2018-09-05T10:20:36.362Z,4.05
2018-09-05T10:23:04.700Z,3.95
2018-09-05T10:25:33.003Z,4.47
2018-09-05T10:28:01.239Z,3.85
2018-09-05T10:30:29.511Z,3.72
2018-09-05T10:32:57.793Z,3.75
2018-09-05T10:35:26.115Z,3.95
2018-09-05T10:37:54.443Z,3.70
2018-09-05T10:40:22.723Z,3.95
2018-09-05T10:42:51.031Z,4.03
2018-09-05T10:45:19.355Z,3.50
2018-09-05T10:47:47.660Z,3.70
2018-09-05T10:50:16.312Z,3.42
2018-09-05T10:52:44.531Z,3.50
2018-09-05T10:55:12.916Z,3.25
2018-09-05T10:57:41.244Z,3.27
2018-09-05T11:00:09.593Z,3.33
2018-09-05T11:02:37.884Z,3.10
2018-09-05T11:05:06.256Z,3.27
2018-09-05T11:07:34.528Z,3.08
2018-09-05T11:10:02.874Z,3.20
2018-09-05T11:12:31.164Z,3.10
2018-09-05T11:15:38.396Z,3.30
2018-09-05T11:18:06.699Z,2.90
2018-09-05T11:20:35.195Z,3.20
2018-09-05T11:23:03.499Z,2.87
2018-09-05T11:25:31.820Z,2.70
2018-09-05T11:28:00.123Z,2.75
2018-09-05T11:30:28.473Z,2.90
2018-09-05T11:32:56.738Z,2.60
2018-09-05T11:35:25.003Z,2.92
2018-09-05T11:37:53.272Z,2.80
2018-09-05T11:40:21.651Z,2.98
2018-09-05T11:42:49.939Z,2.70
2018-09-05T11:45:18.252Z,2.47
2018-09-05T11:47:46.582Z,2.33
2018-09-05T11:50:15.276Z,2.87
2018-09-05T11:52:50.304Z,2.20
2018-09-05T11:55:18.608Z,2.60
2018-09-05T11:57:46.887Z,2.70
2018-09-05T12:00:15.379Z,2.85
2018-09-05T12:02:43.719Z,2.67
2018-09-05T12:05:12.057Z,2.50
2018-09-05T12:07:40.370Z,2.50
2018-09-05T12:10:08.716Z,2.35
2018-09-05T12:12:37.033Z,2.42
2018-09-05T12:15:48.701Z,2.60
2018-09-05T12:18:16.998Z,3.00
2018-09-05T12:20:45.301Z,2.80
2018-09-05T12:23:13.580Z,2.62
2018-09-05T12:25:42.022Z,2.40
2018-09-05T12:28:10.404Z,2.50
2018-09-05T12:30:38.686Z,2.77
2018-09-05T12:33:06.956Z,2.55
2018-09-05T12:35:35.267Z,2.70
2018-09-05T12:38:03.575Z,2.60
2018-09-05T12:40:31.897Z,2.47
2018-09-05T12:43:00.224Z,2.90
2018-09-05T12:45:28.535Z,2.85
2018-09-05T12:47:56.854Z,2.80
2018-09-05T12:50:25.168Z,2.62
2018-09-05T12:52:53.608Z,2.62
2018-09-05T12:55:21.904Z,2.67
2018-09-05T12:57:50.242Z,2.98
2018-09-05T13:00:18.864Z,2.70
2018-09-05T13:02:47.168Z,2.92
2018-09-05T13:05:15.608Z,2.58
2018-09-05T13:07:43.911Z,2.50
2018-09-05T13:10:12.228Z,2.50
2018-09-05T13:12:40.551Z,2.65
2018-09-05T13:18:27.816Z,2.40
2018-09-05T13:20:56.159Z,2.52
2018-09-05T13:23:24.743Z,2.50
2018-09-05T13:25:53.164Z,2.33
2018-09-05T13:28:21.436Z,2.60
2018-09-05T13:30:49.715Z,2.33
2018-09-05T13:33:17.976Z,2.50
2018-09-05T13:35:46.384Z,2.20
2018-09-05T13:38:14.706Z,2.60
2018-09-05T13:40:43.053Z,2.55
2018-09-05T13:43:11.356Z,2.95
2018-09-05T13:45:39.731Z,2.72
2018-09-05T13:48:08.063Z,2.50
2018-09-05T13:50:36.615Z,2.70
2018-09-05T13:53:05.201Z,2.42
2018-09-05T13:55:33.493Z,2.52
2018-09-05T13:58:01.824Z,2.65
2018-09-05T14:00:30.129Z,2.50
2018-09-05T14:02:58.439Z,2.40
2018-09-05T14:05:26.720Z,2.55
2018-09-05T14:07:55.067Z,2.77
2018-09-05T14:10:23.325Z,2.50
2018-09-05T14:12:51.688Z,2.33
2018-09-05T14:18:38.150Z,2.15
2018-09-05T14:21:06.431Z,2.40
2018-09-05T14:23:34.793Z,2.50
2018-09-05T14:26:03.127Z,2.15
2018-09-05T14:32:34.457Z,2.58
2018-09-05T14:38:32.088Z,2.02
2018-09-05T14:41:00.409Z,2.20
2018-09-05T14:43:28.670Z,2.00
2018-09-05T14:45:56.991Z,2.20
2018-09-05T14:48:25.299Z,2.30
2018-09-05T14:50:53.572Z,2.17
2018-09-05T14:53:21.844Z,2.02
2018-09-05T14:55:50.064Z,1.87
2018-09-05T14:58:18.387Z,2.10
2018-09-05T15:00:46.677Z,2.30
2018-09-05T15:03:14.991Z,2.25
2018-09-05T15:05:43.326Z,2.10
2018-09-05T15:08:11.675Z,2.22
2018-09-05T15:10:40.052Z,1.80
2018-09-05T15:13:08.357Z,1.87
2018-09-05T15:16:25.781Z,2.08
2018-09-05T15:18:54.095Z,1.92
2018-09-05T15:21:22.414Z,2.30
2018-09-05T15:23:50.725Z,2.10
2018-09-05T15:26:19.110Z,2.17
2018-09-05T15:28:47.508Z,2.30
2018-09-05T15:31:15.765Z,2.20
2018-09-05T15:33:44.074Z,2.08
2018-09-05T15:36:12.367Z,1.95
2018-09-05T15:38:40.703Z,2.05
2018-09-05T15:41:08.937Z,1.90
2018-09-05T15:43:37.244Z,2.37
2018-09-05T15:46:05.623Z,2.00
2018-09-05T15:48:33.919Z,2.20
2018-09-05T15:51:02.184Z,2.42
2018-09-05T15:53:30.524Z,2.30
2018-09-05T15:55:58.819Z,2.30
2018-09-05T15:58:27.239Z,2.33
2018-09-05T16:00:55.783Z,2.50
2018-09-05T16:03:24.690Z,2.50
2018-09-05T16:05:53.073Z,2.70
2018-09-05T16:08:21.391Z,2.40
2018-09-05T16:10:49.682Z,2.75
2018-09-05T16:13:17.981Z,2.37
2018-09-05T16:16:39.282Z,2.47
2018-09-05T16:19:07.585Z,2.50
2018-09-05T16:21:35.907Z,2.77
2018-09-05T16:24:04.223Z,2.58
2018-09-05T16:26:32.599Z,2.98
2018-09-05T16:29:01.081Z,3.22
2018-09-05T16:31:29.383Z,2.80
2018-09-05T16:33:57.730Z,2.87
2018-09-05T16:36:26.080Z,2.83
2018-09-05T16:38:54.359Z,2.80
2018-09-05T16:41:22.628Z,2.70
2018-09-05T16:43:50.916Z,2.72
2018-09-05T16:46:25.772Z,3.15
2018-09-05T16:48:54.134Z,2.52
2018-09-05T16:51:22.455Z,3.02
2018-09-05T16:53:50.709Z,3.27
2018-09-05T16:56:19.074Z,3.35
2018-09-05T16:58:47.378Z,3.10
2018-09-05T17:01:15.683Z,2.98
2018-09-05T17:03:43.984Z,2.92
2018-09-05T17:06:12.262Z,3.37
2018-09-05T17:08:40.595Z,3.35
2018-09-05T17:11:16.543Z,3.27
2018-09-05T17:13:44.818Z,2.98
2018-09-05T17:16:49.683Z,3.00
2018-09-05T17:19:18.025Z,3.25
2018-09-05T17:21:47.120Z,3.00
2018-09-05T17:24:15.467Z,2.75
2018-09-05T17:26:43.859Z,2.90
2018-09-05T17:29:12.164Z,2.98
2018-09-05T17:31:40.479Z,3.25
2018-09-05T17:34:08.903Z,2.70
2018-09-05T17:36:37.199Z,2.65
2018-09-05T17:39:08.291Z,3.10
2018-09-05T17:41:36.633Z,3.20
2018-09-05T17:44:05.028Z,3.60
2018-09-05T17:46:33.534Z,3.05
2018-09-05T17:49:02.034Z,3.40
2018-09-05T17:51:30.504Z,5.90
2018-09-05T17:53:59.700Z,4.35
2018-09-05T17:56:28.481Z,3.60
2018-09-05T17:58:57.112Z,3.95
2018-09-05T18:01:26.329Z,3.15
2018-09-05T18:03:54.789Z,3.42
2018-09-05T18:06:23.743Z,3.15
2018-09-05T18:08:52.661Z,3.65
2018-09-05T18:11:21.932Z,3.22
2018-09-05T18:13:51.112Z,3.58
2018-09-05T18:16:59.350Z,3.15
2018-09-05T18:19:28.379Z,3.40
2018-09-05T18:21:57.407Z,3.45
2018-09-05T18:24:26.599Z,3.00
2018-09-05T18:26:55.854Z,3.52
2018-09-05T18:29:24.804Z,3.80
2018-09-05T18:31:53.868Z,3.25
2018-09-05T18:34:22.964Z,3.60
2018-09-05T18:36:52.372Z,3.27
2018-09-05T18:39:21.568Z,3.67
2018-09-05T18:41:52.034Z,3.27
2018-09-05T18:44:21.631Z,3.20
2018-09-05T18:46:51.511Z,3.25
2018-09-05T18:49:21.083Z,3.40
2018-09-05T18:51:52.539Z,3.00
2018-09-05T18:54:21.655Z,3.90
2018-09-05T18:56:51.873Z,3.75
2018-09-05T18:59:21.108Z,3.30
2018-09-05T19:01:51.681Z,3.58
2018-09-05T19:04:21.115Z,3.07
2018-09-05T19:06:51.558Z,3.40
2018-09-05T19:09:20.911Z,3.00
2018-09-05T19:11:51.707Z,3.10
2018-09-05T19:14:41.982Z,3.00
2018-09-05T19:17:16.044Z,3.30
2018-09-05T19:19:45.201Z,2.93
2018-09-05T19:22:14.538Z,3.02
2018-09-05T19:24:43.650Z,3.03
2018-09-05T19:27:12.765Z,3.20
2018-09-05T19:33:35.919Z,3.20
2018-09-05T19:36:25.221Z,3.33
2018-09-05T19:39:07.584Z,3.50
2018-09-05T19:42:06.561Z,3.70
2018-09-05T19:44:45.990Z,3.20
2018-09-05T19:50:37.667Z,3.40
2018-09-05T19:53:13.686Z,3.20
2018-09-05T19:55:47.098Z,2.97
2018-09-05T20:01:03.036Z,3.30
2018-09-05T20:03:32.206Z,3.10
2018-09-05T20:06:01.302Z,2.90
2018-09-05T20:08:30.375Z,3.60
2018-09-05T20:10:59.455Z,3.63
2018-09-05T20:13:28.613Z,3.33
2018-09-05T20:19:19.391Z,3.50
2018-09-05T20:21:50.030Z,3.10
2018-09-05T20:24:19.284Z,3.43
2018-09-05T20:27:39.289Z,3.20
2018-09-05T20:30:08.494Z,3.30
2018-09-05T20:32:37.512Z,3.23
2018-09-05T20:35:06.606Z,2.93
2018-09-05T20:37:35.618Z,3.30
2018-09-05T20:40:04.667Z,3.27
2018-09-05T20:42:33.695Z,3.03
2018-09-05T20:45:03.269Z,3.17
2018-09-05T20:47:32.319Z,3.17
2018-09-05T20:50:01.357Z,3.17
2018-09-05T20:52:30.420Z,3.30
2018-09-05T20:54:59.493Z,3.07
2018-09-05T20:57:28.598Z,3.50
2018-09-05T20:59:57.628Z,3.40
2018-09-05T21:02:26.733Z,3.30
2018-09-05T21:04:55.850Z,3.10
2018-09-05T21:07:25.107Z,3.07
2018-09-05T21:09:54.203Z,3.00
2018-09-05T21:12:23.164Z,2.90
2018-09-05T21:15:33.730Z,3.10
2018-09-05T21:18:02.755Z,2.93
2018-09-05T21:20:31.727Z,2.87
2018-09-05T21:23:00.464Z,3.00
2018-09-05T21:25:29.677Z,3.23
2018-09-05T21:27:58.689Z,2.70
2018-09-05T21:30:27.182Z,2.93
2018-09-05T21:32:56.169Z,2.80
2018-09-05T21:35:24.857Z,3.07
2018-09-05T21:37:53.237Z,2.70
2018-09-05T21:40:21.540Z,2.67
2018-09-05T21:42:49.792Z,2.63
2018-09-05T21:45:18.875Z,2.80
2018-09-05T21:47:47.151Z,2.80
2018-09-05T21:50:15.981Z,2.67
2018-09-05T21:52:44.318Z,2.50
2018-09-05T21:55:12.647Z,2.63
2018-09-05T21:57:40.936Z,2.60
2018-09-05T22:00:10.360Z,2.90
2018-09-05T22:02:38.704Z,2.60
2018-09-05T22:05:07.136Z,2.50
2018-09-05T22:07:35.527Z,2.53
2018-09-05T22:10:03.918Z,2.80
2018-09-05T22:12:32.214Z,2.93
2018-09-05T22:15:00.520Z,2.30
2018-09-05T22:17:28.871Z,2.80
2018-09-05T22:19:57.164Z,2.50
2018-09-05T22:22:25.463Z,2.50
2018-09-05T22:24:53.809Z,2.50
2018-09-05T22:27:22.099Z,2.67
2018-09-05T22:29:50.381Z,3.00
2018-09-05T22:32:18.752Z,2.60
2018-09-05T22:34:46.995Z,2.60
2018-09-05T22:37:15.265Z,2.43
2018-09-05T22:39:43.538Z,2.40
2018-09-05T22:42:12.836Z,2.70
2018-09-05T22:44:52.884Z,2.73
2018-09-05T22:47:32.217Z,2.50
2018-09-05T22:51:13.826Z,2.80
2018-09-05T22:58:21.959Z,2.80
2018-09-05T23:01:01.072Z,2.50
2018-09-05T23:04:08.180Z,2.70
2018-09-05T23:06:49.767Z,2.80
2018-09-05T23:10:29.460Z,2.60
2018-09-05T23:13:08.704Z,2.37
2018-09-05T23:15:47.907Z,2.57
2018-09-05T23:18:27.216Z,2.53
2018-09-05T23:21:06.454Z,2.30
2018-09-05T23:23:45.774Z,2.60
2018-09-05T23:26:14.089Z,2.50
2018-09-05T23:28:42.332Z,2.40
2018-09-05T23:31:10.575Z,2.53
2018-09-05T23:33:38.815Z,2.63
2018-09-05T23:36:07.114Z,2.90
2018-09-05T23:38:35.429Z,2.40
2018-09-05T23:41:03.844Z,2.43
2018-09-05T23:43:32.120Z,2.63
2018-09-05T23:46:00.495Z,2.53
2018-09-05T23:48:28.787Z,2.80
2018-09-05T23:51:03.608Z,2.30
2018-09-05T23:53:31.915Z,2.77
2018-09-05T23:56:00.302Z,2.47
2018-09-05T23:58:28.629Z,2.53
